Joyce Hale — WDB9906 — position and weather

sailwx.info

Track history (hours):
 
Tides and Currents Weather Stations Pressure Air Temp Water Temp Dewpoint Dewpoint Depression Visibility Wind Speed Wind Dir Waves Ship Positions

Joyce Hale

Owner: American River Transportation Company, St Louis, MO. More information available from US FCC via Universal Licensing System and Coast Guard Vessel Documentation Center.

Last reported at 2017-Oct-19 08:06 UTC. Time now 2017-Nov-23 07:50 UTC.
Position N 32°40' W 091°07'.
Warning: this ship's position is 34 days out of date.

Length 49 m; draft 3 m.

Type: Ship (hazmat cat B). MMSI: 366984910.

Date/timePositionNaut miles runAvg speedWind from/ knotsBaromVisibWave heightAir tempDewpointWater temp
2017-Oct-19 08:06N 32°40' W 091°07'0 4.9
2017-Oct-19 08:00N 32°40' W 091°07'2 3.7
2017-Oct-19 07:29N 32°39' W 091°09'2 3.6
2017-Oct-19 07:00N 32°37' W 091°09'2 4.0
2017-Oct-19 06:30N 32°36' W 091°08'2 4.8
2017-Oct-19 06:00N 32°34' W 091°06'2 4.3
2017-Oct-19 05:30N 32°32' W 091°06'3 5.3
2017-Oct-19 05:00N 32°29' W 091°07'3 5.0
2017-Oct-19 04:30N 32°27' W 091°05'3 5.1
2017-Oct-19 04:00N 32°26' W 091°02'2 4.7
2017-Oct-19 03:30N 32°25' W 090°60'2 3.9
2017-Oct-19 03:00N 32°23' W 090°60'1 2.3
2017-Oct-19 02:30N 32°22' W 091°00'1 2.9
2017-Oct-19 02:00N 32°21' W 090°59'2 3.9
2017-Oct-19 01:30N 32°21' W 090°57'1 1.3
2017-Oct-19 01:00N 32°21' W 090°56'2 4.2
2017-Oct-19 00:30N 32°19' W 090°54'2 3.3
2017-Oct-19 00:00N 32°18' W 090°55'2 4.7
2017-Oct-18 23:30N 32°17' W 090°57'2 4.4
2017-Oct-18 23:00N 32°15' W 090°59'3 5.0
2017-Oct-18 22:30N 32°12' W 090°59'2 5.0
2017-Oct-18 22:00N 32°10' W 091°00'2 4.4
2017-Oct-18 21:30N 32°08' W 091°01'2 4.2
2017-Oct-18 21:00N 32°07' W 091°03'3 3.0
2017-Oct-18 20:10N 32°08' W 091°06'1 4.3
2017-Oct-18 20:00N 32°07' W 091°07'5 4.9
2017-Oct-18 19:03N 32°04' W 091°03'0 4.3
2017-Oct-18 19:00N 32°03' W 091°03'8 4.4
2017-Oct-18 17:12N 31°58' W 091°11'11 3.4
2017-Oct-18 13:58N 31°51' W 091°20'2 4.5
2017-Oct-18 13:30N 31°49' W 091°21'3 5.3
2017-Oct-18 12:57N 31°46' W 091°21'3 4.9
2017-Oct-18 12:18N 31°43' W 091°23'1 5.0
2017-Oct-18 12:00N 31°42' W 091°24'23 0.5
2017-Oct-16 11:05N 31°59' W 091°06'7 6.1
2017-Oct-16 09:55N 32°06' W 091°06'1 3.4
2017-Oct-16 09:30N 32°08' W 091°06'3 5.6
2017-Oct-16 09:00N 32°07' W 091°03'3 5.3
2017-Oct-16 08:30N 32°09' W 091°00'3 7.0
2017-Oct-16 08:00N 32°12' W 090°59'4 7.8
2017-Oct-16 07:30N 32°16' W 090°58'4 7.4
2017-Oct-16 07:00N 32°18' W 090°55'2 4.0
2017-Oct-16 06:30N 32°20' W 090°54'2 3.4
2017-Oct-16 06:00N 32°21' W 090°56'1 2.3
2017-Oct-16 05:30N 32°21' W 090°57'0 0.1
2017-Oct-16 05:00N 32°21' W 090°57'0 0.0
2017-Oct-16 04:30N 32°21' W 090°57'0 0.0
2017-Oct-16 04:00N 32°21' W 090°57'0 0.0
2017-Oct-16 03:30N 32°21' W 090°57'0 0.0
2017-Oct-16 03:00N 32°21' W 090°57'0 0.1
2017-Oct-16 02:30N 32°21' W 090°57'2 3.5
2017-Oct-16 02:00N 32°21' W 090°60'3 6.1
2017-Oct-16 01:30N 32°24' W 090°59'4 7.1
2017-Oct-16 01:00N 32°26' W 091°03'4 7.4
2017-Oct-16 00:30N 32°28' W 091°06'5 7.1
2017-Oct-15 23:49N 32°33' W 091°06'2 7.5
2017-Oct-15 23:30N 32°35' W 091°08'5 6.9
2017-Oct-15 22:46N 32°40' W 091°08'  
Track history (hours):
 
Tides and Currents Weather Stations Pressure Air Temp Water Temp Dewpoint Dewpoint Depression Visibility Wind Speed Wind Dir Waves Ship Positions

Joyce Hale

Owner: American River Transportation Company, St Louis, MO. More information available from US FCC via Universal Licensing System and Coast Guard Vessel Documentation Center.

Last reported at 2017-Oct-19 08:06 UTC. Time now 2017-Nov-23 07:50 UTC.
Position N 32°40' W 091°07'.
Warning: this ship's position is 34 days out of date.

Length 49 m; draft 3 m.

Type: Ship (hazmat cat B). MMSI: 366984910.

Date/timePositionNaut miles runAvg speedWind from/ knotsBaromVisibWave heightAir tempDewpointWater temp
2017-Oct-19 08:06N 32°40' W 091°07'0 4.9
2017-Oct-19 08:00N 32°40' W 091°07'2 3.7
2017-Oct-19 07:29N 32°39' W 091°09'2 3.6
2017-Oct-19 07:00N 32°37' W 091°09'2 4.0
2017-Oct-19 06:30N 32°36' W 091°08'2 4.8
2017-Oct-19 06:00N 32°34' W 091°06'2 4.3
2017-Oct-19 05:30N 32°32' W 091°06'3 5.3
2017-Oct-19 05:00N 32°29' W 091°07'3 5.0
2017-Oct-19 04:30N 32°27' W 091°05'3 5.1
2017-Oct-19 04:00N 32°26' W 091°02'2 4.7
2017-Oct-19 03:30N 32°25' W 090°60'2 3.9
2017-Oct-19 03:00N 32°23' W 090°60'1 2.3
2017-Oct-19 02:30N 32°22' W 091°00'1 2.9
2017-Oct-19 02:00N 32°21' W 090°59'2 3.9
2017-Oct-19 01:30N 32°21' W 090°57'1 1.3
2017-Oct-19 01:00N 32°21' W 090°56'2 4.2
2017-Oct-19 00:30N 32°19' W 090°54'2 3.3
2017-Oct-19 00:00N 32°18' W 090°55'2 4.7
2017-Oct-18 23:30N 32°17' W 090°57'2 4.4
2017-Oct-18 23:00N 32°15' W 090°59'3 5.0
2017-Oct-18 22:30N 32°12' W 090°59'2 5.0
2017-Oct-18 22:00N 32°10' W 091°00'2 4.4
2017-Oct-18 21:30N 32°08' W 091°01'2 4.2
2017-Oct-18 21:00N 32°07' W 091°03'3 3.0
2017-Oct-18 20:10N 32°08' W 091°06'1 4.3
2017-Oct-18 20:00N 32°07' W 091°07'5 4.9
2017-Oct-18 19:03N 32°04' W 091°03'0 4.3
2017-Oct-18 19:00N 32°03' W 091°03'8 4.4
2017-Oct-18 17:12N 31°58' W 091°11'11 3.4
2017-Oct-18 13:58N 31°51' W 091°20'2 4.5
2017-Oct-18 13:30N 31°49' W 091°21'3 5.3
2017-Oct-18 12:57N 31°46' W 091°21'3 4.9
2017-Oct-18 12:18N 31°43' W 091°23'1 5.0
2017-Oct-18 12:00N 31°42' W 091°24'23 0.5
2017-Oct-16 11:05N 31°59' W 091°06'7 6.1
2017-Oct-16 09:55N 32°06' W 091°06'1 3.4
2017-Oct-16 09:30N 32°08' W 091°06'3 5.6
2017-Oct-16 09:00N 32°07' W 091°03'3 5.3
2017-Oct-16 08:30N 32°09' W 091°00'3 7.0
2017-Oct-16 08:00N 32°12' W 090°59'4 7.8
2017-Oct-16 07:30N 32°16' W 090°58'4 7.4
2017-Oct-16 07:00N 32°18' W 090°55'2 4.0
2017-Oct-16 06:30N 32°20' W 090°54'2 3.4
2017-Oct-16 06:00N 32°21' W 090°56'1 2.3
2017-Oct-16 05:30N 32°21' W 090°57'0 0.1
2017-Oct-16 05:00N 32°21' W 090°57'0 0.0
2017-Oct-16 04:30N 32°21' W 090°57'0 0.0
2017-Oct-16 04:00N 32°21' W 090°57'0 0.0
2017-Oct-16 03:30N 32°21' W 090°57'0 0.0
2017-Oct-16 03:00N 32°21' W 090°57'0 0.1
2017-Oct-16 02:30N 32°21' W 090°57'2 3.5
2017-Oct-16 02:00N 32°21' W 090°60'3 6.1
2017-Oct-16 01:30N 32°24' W 090°59'4 7.1
2017-Oct-16 01:00N 32°26' W 091°03'4 7.4
2017-Oct-16 00:30N 32°28' W 091°06'5 7.1
2017-Oct-15 23:49N 32°33' W 091°06'2 7.5
2017-Oct-15 23:30N 32°35' W 091°08'5 6.9
2017-Oct-15 22:46N 32°40' W 091°08'  

Dump ship's entire track history